Time;durP1;ratioP1;P1;durP2;ratioP2;P2;SDS_P1;SDS_P2;PMS_P1;PMS_P2;Temp;Humidity;BMP_temperature;BMP_pressure;BME280_temperature;BME280_humidity;BME280_pressure;Samples;Min_cycle;Max_cycle;Signal;HPM_P1;HPM_P2
2020/12/19 00:01:36;;;;;;;6.37;3.00;;;8.30;72.60;;;8.44;63.61;97948.97;5064235;28;20048;-45
2020/12/19 00:04:03;;;;;;;3.47;2.85;;;8.30;71.10;;;8.48;63.57;97945.06;5064339;28;20057;-45
2020/12/19 00:06:30;;;;;;;5.93;2.77;;;8.40;71.60;;;8.51;63.35;97941.31;5063770;28;20047;-46
2020/12/19 00:08:58;;;;;;;4.33;2.83;;;8.40;71.30;;;8.53;63.39;97942.00;5064320;28;20045;-45
2020/12/19 00:11:25;;;;;;;3.93;2.50;;;8.50;71.30;;;8.54;63.18;97938.34;5064210;28;20049;-46
2020/12/19 00:13:53;;;;;;;4.77;3.10;;;8.40;70.90;;;8.55;63.43;97936.53;5064332;28;20044;-45
2020/12/19 00:16:20;;;;;;;3.37;2.40;;;8.50;71.10;;;8.55;63.17;97932.09;5063605;28;20049;-46
2020/12/19 00:18:47;;;;;;;5.20;2.73;;;8.50;71.00;;;8.56;63.16;97938.22;5064154;28;20053;-48
2020/12/19 00:21:15;;;;;;;4.07;2.97;;;8.50;70.90;;;8.55;62.88;97931.22;5064000;28;20048;-45
2020/12/19 00:23:42;;;;;;;4.67;3.23;;;8.50;70.90;;;8.55;62.95;97929.44;5064087;28;20049;-46
2020/12/19 00:26:09;;;;;;;3.80;2.80;;;8.50;70.80;;;8.54;63.01;97929.56;5062364;28;20041;-44
2020/12/19 00:28:37;;;;;;;6.27;3.17;;;8.40;70.80;;;8.53;62.95;97931.38;5063902;28;20279;-47
2020/12/19 00:31:04;;;;;;;4.50;2.83;;;8.40;70.90;;;8.51;62.94;97925.38;5063797;28;20349;-46
2020/12/19 00:33:31;;;;;;;4.00;2.93;;;8.40;70.60;;;8.51;62.81;97913.91;5063416;28;20045;-45
2020/12/19 00:35:59;;;;;;;3.93;2.93;;;8.40;70.70;;;8.49;62.75;97914.03;5063307;28;20045;-45
2020/12/19 00:38:27;;;;;;;4.37;2.77;;;8.40;70.50;;;8.49;62.65;97908.75;5078489;28;20061;-46
2020/12/19 00:40:58;;;;;;;4.13;2.80;;;8.40;70.50;;;8.49;62.73;97911.38;5064138;28;20048;-49
2020/12/19 00:43:25;;;;;;;3.87;2.70;;;8.30;71.20;;;8.50;62.54;97909.59;5063693;28;20063;-47
2020/12/19 00:45:52;;;;;;;5.40;3.30;;;8.40;70.30;;;8.50;62.26;97902.47;5063088;28;20052;-45
2020/12/19 00:48:20;;;;;;;4.73;3.07;;;8.40;69.60;;;8.50;62.08;97906.94;5063382;28;20130;-47
2020/12/19 00:50:48;;;;;;;4.40;3.00;;;8.40;69.90;;;8.48;62.04;97897.28;5063375;28;20060;-47
2020/12/19 00:53:15;;;;;;;4.30;2.63;;;8.40;69.60;;;8.50;62.06;97891.03;5063471;28;20041;-46
2020/12/19 00:55:43;;;;;;;3.73;2.40;;;8.40;69.70;;;8.50;61.75;97891.03;5062551;28;20059;-46
2020/12/19 00:58:11;;;;;;;3.07;2.27;;;8.40;69.40;;;8.50;61.79;97889.19;5063336;28;20059;-44
2020/12/19 01:00:38;;;;;;;4.93;3.00;;;8.40;69.30;;;8.51;61.97;97888.25;5063205;28;20249;-45
2020/12/19 01:03:05;;;;;;;4.40;2.40;;;8.40;69.30;;;8.53;62.00;97899.53;5063300;28;20272;-45
2020/12/19 01:05:34;;;;;;;4.80;2.50;;;8.50;69.40;;;8.55;61.98;97900.25;5062809;28;20048;-44
2020/12/19 01:08:01;;;;;;;3.93;2.60;;;8.50;69.30;;;8.56;62.02;97904.56;5063140;28;20045;-45
2020/12/19 01:10:29;;;;;;;5.53;3.30;;;8.50;68.10;;;8.47;61.49;97900.94;5062686;28;20055;-48
2020/12/19 01:12:56;;;;;;;5.20;3.57;;;8.30;69.10;;;8.41;61.90;97897.97;5063001;28;20044;-47
2020/12/19 01:15:24;;;;;;;4.73;3.60;;;8.30;69.80;;;8.40;61.93;97898.97;5062563;28;20051;-45
2020/12/19 01:17:51;;;;;;;4.63;3.73;;;8.20;70.00;;;8.39;61.98;97906.06;5062669;28;20052;-47
2020/12/19 01:20:19;;;;;;;5.80;4.13;;;8.20;70.20;;;8.35;62.10;97899.38;5063052;28;20060;-47
2020/12/19 01:22:46;;;;;;;6.57;4.33;;;8.10;70.50;;;8.34;62.19;97892.41;5062792;28;20298;-49
2020/12/19 01:25:14;;;;;;;5.33;4.30;;;8.10;70.80;;;8.31;62.16;97891.84;5061385;28;20048;-50
2020/12/19 01:27:41;;;;;;;6.83;4.40;;;8.00;70.80;;;8.28;62.24;97895.63;5062660;28;20047;-48
2020/12/19 01:30:08;;;;;;;7.07;5.80;;;8.00;71.00;;;8.24;62.29;97889.75;5062798;28;20053;-49
2020/12/19 01:32:36;;;;;;;6.23;5.37;;;8.00;71.00;;;8.22;62.17;97898.81;5062598;28;20045;-47
2020/12/19 01:35:03;;;;;;;6.33;4.27;;;8.00;70.70;;;8.13;61.88;97897.03;5062365;28;20327;-46
2020/12/19 01:37:30;;;;;;;5.57;4.40;;;7.70;70.70;;;8.00;61.98;97908.72;5062732;28;20049;-46
2020/12/19 01:39:58;;;;;;;9.33;6.33;;;7.60;72.30;;;7.92;62.12;97902.44;5062523;28;20054;-46
2020/12/19 01:42:25;;;;;;;9.70;7.03;;;7.60;71.90;;;7.89;62.67;97907.06;5061785;28;20248;-46
2020/12/19 01:44:53;;;;;;;11.17;8.23;;;7.60;71.90;;;7.91;62.97;97908.72;5060581;28;20045;-45
2020/12/19 01:47:22;;;;;;;6.53;4.50;;;7.70;72.10;;;7.92;62.51;97908.59;5061600;28;20212;-45
2020/12/19 01:49:49;;;;;;;5.67;4.10;;;7.70;71.70;;;7.92;62.79;97905.09;5062401;28;20041;-45
2020/12/19 01:52:22;;;;;;;7.83;3.83;;;7.80;71.80;;;7.92;62.65;97897.97;5061400;28;20045;-44
2020/12/19 01:54:50;;;;;;;5.03;3.87;;;7.70;71.80;;;7.92;62.57;97897.97;5060112;28;20048;-49
2020/12/19 01:57:21;;;;;;;4.47;3.20;;;7.80;71.60;;;7.96;62.80;97896.72;5062197;28;20341;-46
2020/12/19 01:59:48;;;;;;;4.70;2.90;;;7.90;71.60;;;8.01;63.09;97888.38;5060850;28;20357;-45
2020/12/19 02:02:20;;;;;;;4.17;3.03;;;7.90;71.50;;;8.05;62.21;97887.94;5062018;28;20049;-44
2020/12/19 02:04:47;;;;;;;4.13;2.70;;;7.90;71.10;;;8.11;62.35;97883.06;5060689;28;20070;-46
2020/12/19 02:07:16;;;;;;;3.90;3.10;;;8.00;70.90;;;8.14;62.51;97880.13;5061941;28;20265;-45
2020/12/19 02:09:44;;;;;;;3.87;2.77;;;8.10;70.40;;;8.17;62.40;97883.34;5062010;28;20045;-46
2020/12/19 02:12:12;;;;;;;3.77;3.00;;;8.10;70.20;;;8.20;62.06;97877.75;5061812;28;20063;-44
2020/12/19 02:14:40;;;;;;;4.93;2.87;;;8.10;70.10;;;8.21;62.11;97875.94;5061845;28;20045;-45
2020/12/19 02:17:10;;;;;;;5.03;3.27;;;8.10;70.10;;;8.21;62.04;97876.78;5061554;28;20064;-45
2020/12/19 02:19:42;;;;;;;3.65;3.03;;;8.10;69.90;;;8.24;62.08;97873.03;5061993;28;20057;-46
2020/12/19 02:22:10;;;;;;;6.03;3.13;;;8.20;69.70;;;8.26;62.02;97868.41;5061865;28;20245;-46
2020/12/19 02:24:37;;;;;;;4.00;2.90;;;8.20;69.80;;;8.27;61.90;97864.75;5061938;28;20051;-45
2020/12/19 02:27:05;;;;;;;4.70;3.23;;;8.20;69.70;;;8.25;61.78;97870.19;5061539;28;20237;-47
2020/12/19 02:29:33;;;;;;;4.10;3.30;;;8.20;69.70;;;8.24;62.09;97865.06;5061737;28;20198;-45
2020/12/19 02:32:02;;;;;;;4.77;3.40;;;8.10;69.70;;;8.23;61.61;97866.84;5060565;28;20364;-45
2020/12/19 02:34:30;;;;;;;6.17;4.23;;;8.10;69.50;;;8.20;61.84;97856.53;5061731;28;20051;-45
2020/12/19 02:36:57;;;;;;;4.33;2.77;;;8.10;69.70;;;8.17;61.59;97854.16;5061288;28;20051;-46
2020/12/19 02:39:25;;;;;;;5.63;3.23;;;8.00;69.70;;;8.15;61.65;97858.78;5060112;28;20055;-45
2020/12/19 02:41:53;;;;;;;4.70;3.10;;;8.00;69.70;;;8.13;61.48;97852.78;5061408;28;20055;-45
2020/12/19 02:44:21;;;;;;;5.37;3.00;;;7.90;69.80;;;8.13;61.60;97857.25;5061736;28;20236;-46
2020/12/19 02:46:49;;;;;;;3.80;3.40;;;7.90;69.80;;;8.12;61.24;97850.25;5060190;28;20052;-47
2020/12/19 02:49:18;;;;;;;5.07;3.20;;;7.90;69.70;;;8.11;61.21;97841.47;5061542;28;20045;-45
2020/12/19 02:51:45;;;;;;;4.10;3.00;;;7.90;69.70;;;8.10;61.31;97847.75;5061650;28;20055;-45
2020/12/19 02:54:12;;;;;;;4.23;2.77;;;7.90;69.40;;;8.10;61.70;97853.03;5061593;28;20049;-49
2020/12/19 02:56:40;;;;;;;4.40;3.43;;;7.90;69.40;;;8.09;61.37;97857.50;5060163;28;20075;-45
2020/12/19 02:59:07;;;;;;;4.60;3.23;;;7.90;69.40;;;8.08;61.54;97855.84;5065577;28;20053;-44
2020/12/19 03:01:35;;;;;;;6.67;4.23;;;7.90;69.40;;;8.06;61.66;97846.34;5065512;28;20049;-46
2020/12/19 03:04:02;;;;;;;10.30;6.73;;;7.90;69.50;;;8.05;61.59;97856.13;5065534;28;20041;-44
2020/12/19 03:06:33;;;;;;;5.70;3.70;;;7.80;69.50;;;8.03;61.15;97859.91;5065043;28;20055;-45
2020/12/19 03:09:02;;;;;;;6.13;3.97;;;7.80;69.50;;;8.02;61.05;97851.09;5065662;28;20341;-47
2020/12/19 03:11:30;;;;;;;4.37;2.83;;;7.80;69.30;;;8.00;60.93;97861.00;5064921;28;20341;-45
2020/12/19 03:13:57;;;;;;;4.70;2.57;;;7.80;69.30;;;8.00;61.61;97858.34;5065335;28;20214;-50
2020/12/19 03:16:25;;;;;;;3.93;2.63;;;7.80;69.30;;;7.99;61.34;97854.03;5064970;28;20060;-48
2020/12/19 03:18:52;;;;;;;4.40;2.40;;;7.80;69.20;;;8.00;61.41;97855.69;5065289;28;20051;-45
2020/12/19 03:21:20;;;;;;;4.93;3.00;;;7.80;69.00;;;7.99;61.50;97845.25;5065135;28;20059;-46
2020/12/19 03:23:47;;;;;;;4.80;2.60;;;7.80;69.10;;;7.99;61.44;97856.69;5065305;28;20230;-47
2020/12/19 03:26:15;;;;;;;4.60;3.00;;;7.80;68.90;;;8.00;61.45;97858.34;5064327;28;20049;-46
2020/12/19 03:28:42;;;;;;;3.47;2.73;;;7.80;69.00;;;7.99;60.95;97846.09;5064573;28;20048;-46
2020/12/19 03:31:10;;;;;;;3.47;2.80;;;7.80;68.70;;;7.98;60.70;97836.44;5065109;28;20352;-46
2020/12/19 03:33:37;;;;;;;4.57;3.03;;;7.80;68.60;;;7.98;60.89;97838.25;5065017;28;20057;-46
2020/12/19 03:36:05;;;;;;;5.03;3.57;;;7.80;68.30;;;7.97;60.70;97826.84;5064046;28;20057;-46
2020/12/19 03:38:32;;;;;;;3.20;2.73;;;7.80;68.50;;;7.95;60.61;97828.78;5064977;28;20052;-45
2020/12/19 03:40:59;;;;;;;4.73;3.00;;;7.80;68.60;;;7.91;60.75;97823.88;5064933;28;20055;-45
2020/12/19 03:43:27;;;;;;;5.10;3.07;;;7.70;68.50;;;7.88;60.68;97817.06;5064879;28;20220;-45
2020/12/19 03:45:55;;;;;;;4.67;3.30;;;7.70;68.60;;;7.84;60.10;97827.09;5064350;28;20067;-48
2020/12/19 03:48:23;;;;;;;7.40;3.83;;;7.70;68.40;;;7.77;60.23;97825.16;5064422;28;20337;-47
2020/12/19 03:50:51;;;;;;;5.13;3.73;;;7.60;68.50;;;7.75;60.57;97824.44;5064361;28;20053;-46
2020/12/19 03:53:18;;;;;;;5.23;3.73;;;7.50;68.60;;;7.73;60.86;97824.56;5064702;28;20079;-47
2020/12/19 03:55:46;;;;;;;5.53;3.10;;;7.50;68.80;;;7.71;60.75;97815.09;5063701;28;20052;-44
2020/12/19 03:58:13;;;;;;;5.27;3.67;;;7.40;69.70;;;7.67;60.74;97818.03;5064597;28;20055;-48
2020/12/19 04:00:41;;;;;;;5.23;3.33;;;7.40;69.00;;;7.64;60.87;97820.13;5064659;28;20349;-48
2020/12/19 04:03:08;;;;;;;5.57;3.30;;;7.30;69.10;;;7.62;60.63;97828.22;5064459;28;20049;-47
2020/12/19 04:05:36;;;;;;;7.07;3.77;;;7.30;69.30;;;7.58;61.23;97818.88;5063735;28;20049;-48
2020/12/19 04:08:03;;;;;;;6.63;4.17;;;7.30;69.40;;;7.55;60.65;97823.59;5062482;28;20051;-49
2020/12/19 04:10:31;;;;;;;6.63;3.90;;;7.20;69.50;;;7.51;60.41;97824.84;5064451;28;20057;-47
2020/12/19 04:12:58;;;;;;;5.83;3.70;;;7.20;69.50;;;7.47;60.56;97825.13;5064251;28;20049;-46
2020/12/19 04:15:25;;;;;;;5.83;3.60;;;7.10;69.70;;;7.44;60.71;97827.19;5063521;28;20056;-45
2020/12/19 04:17:53;;;;;;;4.60;3.77;;;7.10;69.90;;;7.41;61.33;97820.38;5064076;28;20053;-46
2020/12/19 04:20:21;;;;;;;5.17;3.50;;;7.10;69.90;;;7.39;61.42;97826.78;5063057;28;20056;-46
2020/12/19 04:22:48;;;;;;;5.60;4.03;;;7.00;69.80;;;7.34;60.67;97832.47;5063536;28;20052;-46
2020/12/19 04:25:16;;;;;;;6.90;3.63;;;7.00;69.90;;;7.30;61.15;97818.66;5063605;28;20063;-47
2020/12/19 04:27:44;;;;;;;5.47;3.67;;;7.00;69.80;;;7.28;61.15;97822.44;5063975;28;20368;-46
2020/12/19 04:30:11;;;;;;;4.87;3.30;;;7.00;70.10;;;7.27;61.01;97811.00;5063849;28;20229;-44
2020/12/19 04:32:39;;;;;;;5.70;3.73;;;7.00;70.20;;;7.24;61.33;97805.97;5063859;28;20049;-45
2020/12/19 04:35:07;;;;;;;7.03;3.77;;;7.00;70.10;;;7.23;61.88;97806.09;5063298;28;20040;-46
2020/12/19 04:37:34;;;;;;;5.73;3.77;;;6.90;70.10;;;7.21;61.27;97805.41;5063416;28;20067;-46
2020/12/19 04:40:04;;;;;;;5.30;3.97;;;6.90;70.10;;;7.20;61.02;97796.63;5063614;28;20048;-49
2020/12/19 04:42:34;;;;;;;6.20;3.60;;;6.90;70.20;;;7.18;60.93;97806.53;5063169;28;20067;-46
2020/12/19 04:45:04;;;;;;;6.67;3.80;;;6.80;70.10;;;7.16;60.87;97805.00;5058811;28;20371;-46
2020/12/19 04:47:31;;;;;;;4.97;3.20;;;6.80;70.30;;;7.11;61.13;97800.09;5063453;28;20049;-46
2020/12/19 04:49:59;;;;;;;5.30;3.40;;;6.70;70.60;;;7.06;61.50;97808.44;5063147;28;20252;-45
2020/12/19 04:52:28;;;;;;;6.13;3.47;;;6.70;70.70;;;7.03;61.89;97800.78;5063461;28;20049;-50
2020/12/19 04:54:56;;;;;;;4.67;3.90;;;6.70;70.80;;;7.04;61.42;97802.47;5061588;28;20241;-50
2020/12/19 04:57:23;;;;;;;5.17;3.20;;;6.70;70.70;;;7.05;62.04;97806.75;5063476;28;20045;-47
2020/12/19 04:59:51;;;;;;;5.83;3.27;;;6.80;70.60;;;7.08;61.39;97808.31;5062602;28;20341;-44
2020/12/19 05:02:19;;;;;;;4.20;3.17;;;6.80;70.40;;;7.11;61.64;97808.03;5062890;28;20049;-48
2020/12/19 05:04:47;;;;;;;5.80;3.53;;;6.90;70.50;;;7.15;61.52;97805.97;5062837;28;20033;-46
2020/12/19 05:07:14;;;;;;;5.77;3.33;;;6.90;70.30;;;7.18;61.17;97803.88;5063103;28;20154;-47
2020/12/19 05:09:45;;;;;;;4.67;3.20;;;7.00;70.10;;;7.20;61.71;97806.41;5062734;28;20045;-46
2020/12/19 05:12:13;;;;;;;3.87;3.13;;;7.00;69.90;;;7.24;61.65;97805.16;5063062;28;20044;-44
2020/12/19 05:14:41;;;;;;;4.07;3.07;;;7.10;70.00;;;7.25;61.41;97810.31;5063222;28;20071;-49
2020/12/19 05:17:08;;;;;;;4.87;2.50;;;7.10;69.90;;;7.27;61.57;97811.00;5062745;28;20049;-46
2020/12/19 05:19:36;;;;;;;4.57;2.50;;;7.10;69.80;;;7.29;61.70;97805.59;5062655;28;20349;-45
2020/12/19 05:22:03;;;;;;;3.77;2.50;;;7.10;69.70;;;7.30;61.65;97805.44;5062226;28;20341;-45
2020/12/19 05:24:34;;;;;;;3.17;2.40;;;7.10;69.70;;;7.32;61.86;97799.16;5062853;28;20059;-47
2020/12/19 05:27:05;;;;;;;4.07;2.90;;;7.10;69.50;;;7.34;61.11;97799.88;5062479;28;20055;-46
2020/12/19 05:29:36;;;;;;;3.42;2.50;;;7.10;69.50;;;7.34;60.93;97797.22;5062739;28;20359;-45
2020/12/19 05:32:04;;;;;;;4.03;2.13;;;7.10;69.50;;;7.35;60.87;97799.75;5091241;22;20217;-45
2020/12/19 05:34:32;;;;;;;4.13;2.00;;;7.10;69.50;;;7.37;61.26;97795.13;5082588;28;20041;-46
2020/12/19 05:37:01;;;;;;;3.43;2.27;;;7.20;69.50;;;7.40;61.25;97794.84;5082297;28;20052;-46
2020/12/19 05:39:28;;;;;;;3.27;2.37;;;7.20;69.30;;;7.40;61.60;97789.56;5064951;28;20048;-47
2020/12/19 05:41:56;;;;;;;5.83;2.20;;;7.20;69.30;;;7.42;61.11;97797.38;5082456;28;20044;-47
2020/12/19 05:44:23;;;;;;;3.50;2.20;;;7.20;69.10;;;7.43;61.35;97791.09;5082133;28;20056;-46
2020/12/19 05:46:51;;;;;;;4.47;2.67;;;7.20;69.20;;;7.46;61.22;97798.75;5081331;28;20056;-44
2020/12/19 05:49:21;;;;;;;4.00;2.50;;;7.30;69.20;;;7.48;61.23;97799.47;5081655;28;20044;-47
2020/12/19 05:51:53;;;;;;;5.07;2.83;;;7.30;69.10;;;7.48;61.14;97805.63;5081272;28;20055;-45
2020/12/19 05:54:23;;;;;;;4.13;2.77;;;7.30;68.90;;;7.49;61.39;97798.50;5065052;28;20047;-48
2020/12/19 05:56:53;;;;;;;3.70;2.73;;;7.30;69.00;;;7.49;60.91;97804.63;5081483;28;20058;-45
2020/12/19 05:59:20;;;;;;;4.47;3.27;;;7.30;69.00;;;7.48;61.13;97805.63;5064923;28;20051;-47
2020/12/19 06:01:49;;;;;;;4.60;2.60;;;7.30;69.00;;;7.49;60.89;97798.50;5079494;28;20058;-45
2020/12/19 06:04:19;;;;;;;5.30;2.70;;;7.30;69.00;;;7.47;61.24;97803.09;5082240;28;20044;-46
2020/12/19 06:06:48;;;;;;;4.50;2.97;;;7.20;69.00;;;7.46;60.42;97804.91;5081638;28;20056;-44
2020/12/19 06:09:17;;;;;;;3.10;2.17;;;7.20;68.80;;;7.45;61.23;97803.22;5082200;28;20048;-47
2020/12/19 06:11:49;;;;;;;4.03;2.57;;;7.20;68.90;;;7.43;60.77;97796.41;5081429;28;20044;-46
2020/12/19 06:14:26;;;;;;;5.17;2.97;;;7.20;68.60;;;7.41;60.70;97801.84;5081697;28;20049;-46
2020/12/19 06:16:59;;;;;;;7.77;3.83;;;7.10;68.50;;;7.39;60.41;97801.13;5063785;28;20059;-45
2020/12/19 06:19:30;;;;;;;3.90;2.80;;;7.10;68.80;;;7.37;60.66;97799.59;5064877;28;20058;-45
2020/12/19 06:21:59;;;;;;;4.63;3.17;;;7.10;69.10;;;7.33;61.24;97799.03;5064691;28;20054;-45
2020/12/19 06:24:43;;;;;;;3.80;2.90;;;7.10;69.00;;;7.32;60.68;97801.81;5082162;28;20052;-45
2020/12/19 06:27:23;;;;;;;4.80;3.33;;;7.00;68.20;;;7.30;60.64;97807.25;5081788;28;20048;-46
2020/12/19 06:29:52;;;;;;;6.53;3.40;;;7.00;68.60;;;7.27;61.10;97805.72;5081876;28;20051;-46
2020/12/19 06:32:24;;;;;;;8.03;4.17;;;7.00;69.10;;;7.24;60.35;97805.97;5081212;28;20046;-46
2020/12/19 06:35:10;;;;;;;5.87;4.20;;;6.90;69.10;;;7.22;60.48;97810.56;5081392;28;20048;-49
2020/12/19 06:37:43;;;;;;;7.43;3.90;;;6.90;68.50;;;7.17;60.69;97811.94;5081854;28;20045;-45
2020/12/19 06:40:19;;;;;;;5.97;4.13;;;6.90;69.00;;;7.14;60.56;97817.53;5081803;28;20044;-45
2020/12/19 06:43:08;;;;;;;4.53;3.37;;;6.80;69.10;;;7.07;60.78;97809.28;5081835;28;20048;-45
2020/12/19 06:45:36;;;;;;;5.70;4.20;;;6.80;69.40;;;7.01;61.05;97815.94;5066097;28;20331;-45
2020/12/19 06:48:24;;;;;;;5.17;3.47;;;6.70;69.60;;;6.98;60.81;97815.38;5081659;28;20050;-46
2020/12/19 06:50:56;;;;;;;5.03;3.50;;;6.60;69.50;;;6.93;60.93;97812.31;5066925;28;20048;-47
2020/12/19 06:53:25;;;;;;;23.60;11.83;;;6.50;69.50;;;6.88;60.71;97815.34;5081344;28;20336;-46
2020/12/19 06:55:52;;;;;;;11.97;6.30;;;6.50;69.90;;;6.84;60.59;97817.44;5081270;28;20045;-45
2020/12/19 06:58:28;;;;;;;11.13;7.60;;;6.40;70.00;;;6.80;61.17;97820.47;5081448;28;20078;-50
2020/12/19 07:00:56;;;;;;;16.93;6.97;;;6.40;70.00;;;6.74;60.69;97818.38;5081346;28;20366;-48
2020/12/19 07:03:41;;;;;;;9.30;6.47;;;6.30;71.10;;;6.66;60.68;97811.91;5063776;28;20044;-45
2020/12/19 07:06:11;;;;;;;11.97;6.03;;;6.20;70.20;;;6.59;61.21;97810.78;5063137;28;20362;-48
2020/12/19 07:08:50;;;;;;;9.33;5.43;;;6.10;70.60;;;6.52;61.14;97809.63;5081199;28;20044;-49
2020/12/19 07:11:33;;;;;;;10.73;6.33;;;6.00;70.60;;;6.48;61.13;97810.88;5081373;28;20071;-48
2020/12/19 07:14:02;;;;;;;8.23;5.23;;;6.00;70.90;;;6.40;61.33;97803.59;5081557;28;20059;-47
2020/12/19 07:16:50;;;;;;;10.77;5.30;;;5.90;71.00;;;6.35;61.32;97805.78;5080950;28;20045;-46
2020/12/19 07:19:21;;;;;;;7.67;5.07;;;5.90;71.30;;;6.31;61.56;97812.28;5055823;28;20044;-49
2020/12/19 07:21:49;;;;;;;11.23;7.77;;;5.80;71.30;;;6.24;61.72;97813.78;5060921;28;20063;-48
2020/12/19 07:24:17;;;;;;;8.43;6.60;;;5.80;71.30;;;6.21;61.13;97820.16;5061171;28;20053;-47
2020/12/19 07:26:46;;;;;;;9.43;7.07;;;5.80;71.30;;;6.19;61.17;97823.94;5060435;28;20243;-46
2020/12/19 07:29:16;;;;;;;12.23;6.87;;;5.70;71.40;;;6.13;61.31;97827.91;5060039;28;20052;-48
2020/12/19 07:31:46;;;;;;;7.23;5.93;;;5.60;71.20;;;6.04;60.88;97839.25;5043459;28;20041;-47
2020/12/19 07:34:14;;;;;;;7.70;5.73;;;5.50;71.60;;;5.95;61.03;97824.97;5061241;28;20055;-46
2020/12/19 07:36:44;;;;;;;7.33;5.07;;;5.40;72.50;;;5.90;61.27;97835.09;5060651;28;20041;-46
2020/12/19 07:39:16;;;;;;;7.03;4.90;;;5.30;72.00;;;5.82;61.06;97833.06;5061310;28;20045;-47
2020/12/19 07:41:47;;;;;;;8.07;5.73;;;5.30;72.30;;;5.78;61.97;97833.44;5061359;28;20244;-48
2020/12/19 07:44:21;;;;;;;21.37;11.40;;;5.20;72.50;;;5.73;61.81;97836.47;5046710;28;20056;-47
2020/12/19 07:47:04;;;;;;;24.40;11.40;;;5.20;72.70;;;5.76;62.04;97836.22;5062216;28;20055;-46
2020/12/19 07:49:41;;;;;;;25.23;13.57;;;5.40;73.20;;;5.82;62.61;97845.47;5064660;28;20353;-46
2020/12/19 07:52:19;;;;;;;22.97;11.73;;;5.50;73.10;;;5.90;62.63;97841.19;5064256;28;20045;-46
2020/12/19 07:55:05;;;;;;;26.90;13.93;;;5.60;72.80;;;5.98;62.70;97845.06;5064298;28;20049;-46
2020/12/19 07:57:33;;;;;;;17.87;8.13;;;5.70;72.60;;;6.04;63.21;97841.91;5064483;28;20044;-46
2020/12/19 08:00:03;;;;;;;21.10;11.67;;;5.80;72.60;;;6.09;62.46;97842.38;5064202;28;20364;-48
2020/12/19 08:02:36;;;;;;;17.53;8.63;;;5.90;72.40;;;6.15;62.31;97839.19;5072429;28;20051;-46
2020/12/19 08:05:04;;;;;;;15.90;9.83;;;5.90;72.10;;;6.23;62.53;97843.84;5078076;28;20052;-46
2020/12/19 08:07:31;;;;;;;6.80;5.10;;;6.10;72.10;;;6.30;62.82;97847.63;5084376;28;20048;-46
2020/12/19 08:10:17;;;;;;;4.50;3.73;;;6.20;71.80;;;6.40;62.00;97855.66;5078459;28;20054;-51
2020/12/19 08:12:45;;;;;;;5.77;4.53;;;6.30;71.30;;;6.48;62.72;97853.19;5076380;28;20241;-45
2020/12/19 08:15:18;;;;;;;5.57;4.20;;;6.40;71.20;;;6.54;62.25;97860.59;5074173;28;20045;-46
2020/12/19 08:17:45;;;;;;;4.80;3.10;;;6.50;70.90;;;6.61;62.71;97859.13;5066874;28;20056;-48
2020/12/19 08:20:14;;;;;;;3.93;3.03;;;6.60;70.60;;;6.67;62.72;97855.94;5074881;28;20055;-46
2020/12/19 08:22:42;;;;;;;4.40;3.10;;;6.60;70.70;;;6.73;62.16;97859.88;5046291;28;20143;-47
2020/12/19 08:25:12;;;;;;;6.10;2.70;;;6.70;70.50;;;6.78;62.27;97855.00;5065133;28;20052;-48
2020/12/19 08:27:51;;;;;;;5.47;3.40;;;6.80;70.40;;;6.80;61.54;97855.69;5075210;28;20054;-47
2020/12/19 08:30:33;;;;;;;3.60;2.97;;;6.80;70.10;;;6.88;62.09;97862.97;5083929;28;20042;-44
2020/12/19 08:33:04;;;;;;;4.50;3.43;;;6.90;70.10;;;6.95;61.92;97850.06;5083225;28;20052;-48
2020/12/19 08:35:33;;;;;;;5.67;3.20;;;6.90;70.30;;;6.97;61.61;97846.31;5081924;28;20048;-45
2020/12/19 08:38:09;;;;;;;5.87;3.83;;;7.00;69.80;;;7.06;62.92;97860.56;5083843;28;20048;-47
2020/12/19 08:40:46;;;;;;;10.40;4.50;;;7.10;69.80;;;7.11;62.63;97855.69;5083937;28;20148;-46
2020/12/19 08:43:16;;;;;;;9.03;6.40;;;7.10;70.20;;;7.12;62.57;97857.38;5083812;28;20048;-49
2020/12/19 08:45:49;;;;;;;8.27;6.97;;;7.00;70.60;;;7.06;62.54;97853.47;5083245;28;20260;-45
2020/12/19 08:48:22;;;;;;;9.77;8.07;;;7.00;71.00;;;7.05;62.56;97858.88;5083702;28;20048;-46
2020/12/19 08:50:57;;;;;;;9.17;7.63;;;6.90;71.40;;;7.03;62.86;97859.00;5083646;28;20048;-46
2020/12/19 08:53:26;;;;;;;10.30;8.60;;;6.80;71.60;;;7.02;62.92;97870.59;5083563;28;20051;-50
2020/12/19 08:55:55;;;;;;;10.60;9.37;;;6.80;71.80;;;7.00;62.50;97867.22;5082311;28;20048;-46
2020/12/19 08:58:27;;;;;;;12.37;11.27;;;6.80;71.90;;;6.99;62.69;97868.19;5082950;28;20056;-47
2020/12/19 09:01:14;;;;;;;12.20;11.00;;;6.80;72.00;;;7.02;62.85;97873.22;5082428;28;20057;-47
2020/12/19 09:03:43;;;;;;;12.23;11.00;;;6.80;72.20;;;7.01;62.58;97868.06;5082943;28;20048;-47
2020/12/19 09:06:13;;;;;;;12.03;10.93;;;6.80;72.30;;;7.00;63.26;97864.59;5082741;28;20043;-47
2020/12/19 09:08:46;;;;;;;11.60;8.93;;;6.80;72.50;;;7.01;63.16;97870.72;5083106;28;20048;-47
2020/12/19 09:11:33;;;;;;;9.88;8.23;;;6.80;72.80;;;7.01;63.33;97874.19;5081796;28;20055;-49
2020/12/19 09:14:11;;;;;;;9.07;6.80;;;6.80;73.20;;;7.02;63.41;97870.59;5065509;28;20059;-46
2020/12/19 09:16:51;;;;;;;12.03;6.30;;;6.80;73.20;;;7.02;63.26;97869.75;5055347;28;20045;-47
2020/12/19 09:19:19;;;;;;;6.47;4.87;;;6.90;73.20;;;7.04;63.22;97876.59;5062132;28;20055;-46
2020/12/19 09:21:58;;;;;;;6.03;4.20;;;6.90;73.00;;;7.10;62.86;97878.69;5061989;28;20056;-47
2020/12/19 09:24:27;;;;;;;6.77;3.47;;;7.10;72.30;;;7.22;63.00;97881.25;5061446;28;20063;-46
2020/12/19 09:26:54;;;;;;;5.17;3.33;;;7.20;72.90;;;7.32;62.87;97887.41;5067872;28;20062;-45
2020/12/19 09:29:22;;;;;;;6.43;3.43;;;7.40;71.60;;;7.42;62.70;97885.59;5081992;28;20247;-46
2020/12/19 09:31:49;;;;;;;5.10;2.93;;;7.50;71.20;;;7.54;63.00;97890.81;5063225;28;20247;-46
2020/12/19 09:34:17;;;;;;;4.27;3.50;;;7.70;71.00;;;7.65;62.77;97885.38;5081055;28;20356;-47
2020/12/19 09:36:45;;;;;;;3.93;2.87;;;7.80;70.70;;;7.75;62.45;97885.41;5080751;28;20075;-46
2020/12/19 09:39:12;;;;;;;4.80;3.23;;;7.90;70.70;;;7.84;62.65;97880.13;5063307;28;20048;-48
2020/12/19 09:41:41;;;;;;;5.00;2.87;;;8.00;70.30;;;7.92;62.31;97875.94;5081176;28;20052;-45
2020/12/19 09:44:08;;;;;;;4.87;2.87;;;8.10;70.00;;;7.99;62.07;97875.25;5080058;28;20049;-47
2020/12/19 09:46:37;;;;;;;3.70;3.00;;;8.20;69.90;;;8.07;62.31;97874.56;5064012;28;20247;-47
2020/12/19 09:49:04;;;;;;;3.50;2.90;;;8.20;69.80;;;8.12;62.23;97864.34;5087943;28;20050;-47
2020/12/19 09:51:32;;;;;;;4.23;3.17;;;8.30;69.90;;;8.16;62.19;97864.91;5101473;28;20050;-47
2020/12/19 09:53:59;;;;;;;6.57;3.37;;;8.30;69.80;;;8.23;62.20;97873.97;5102650;28;20044;-48
2020/12/19 09:56:27;;;;;;;5.73;3.47;;;8.40;69.90;;;8.25;61.71;97867.53;5102240;28;20040;-46
2020/12/19 09:58:54;;;;;;;5.60;3.00;;;8.40;69.60;;;8.30;61.96;97875.09;5102677;28;20350;-45
2020/12/19 10:01:21;;;;;;;5.40;2.90;;;8.40;69.70;;;8.35;61.82;97872.84;5102446;28;20239;-46
2020/12/19 10:03:49;;;;;;;5.00;3.43;;;8.50;69.70;;;8.38;62.13;97859.31;5102547;28;20079;-49
2020/12/19 10:06:17;;;;;;;4.93;3.50;;;8.50;69.60;;;8.43;61.93;97873.03;5096851;28;20369;-47
2020/12/19 10:08:44;;;;;;;7.00;4.13;;;8.50;69.70;;;8.48;62.08;97865.47;5082171;28;20051;-47
2020/12/19 10:11:12;;;;;;;5.70;3.90;;;8.50;69.70;;;8.49;61.83;97863.63;5089281;28;20032;-47
2020/12/19 10:13:39;;;;;;;4.70;3.63;;;8.60;69.60;;;8.54;61.85;97857.91;5101771;28;20247;-49
2020/12/19 10:16:07;;;;;;;5.17;3.70;;;8.60;69.50;;;8.54;61.83;97856.09;5101768;28;20047;-46
2020/12/19 10:18:34;;;;;;;4.47;3.87;;;8.60;69.50;;;8.59;61.76;97864.47;5102383;28;20050;-46
2020/12/19 10:21:07;;;;;;;4.97;3.90;;;8.70;69.60;;;8.60;61.37;97858.16;5102327;28;20055;-46
2020/12/19 10:23:34;;;;;;;5.37;3.70;;;8.70;69.20;;;8.65;61.94;97857.75;5102278;28;20247;-46
2020/12/19 10:26:02;;;;;;;8.17;4.37;;;8.70;69.70;;;8.68;61.80;97846.84;5101802;28;20039;-48
2020/12/19 10:28:30;;;;;;;5.33;3.97;;;8.70;69.60;;;8.72;61.76;97847.38;5101633;28;20201;-46
2020/12/19 10:30:57;;;;;;;9.77;4.80;;;8.80;69.70;;;8.76;62.00;97852.28;5101727;28;20256;-45
2020/12/19 10:33:25;;;;;;;8.30;5.40;;;8.80;70.10;;;8.77;62.21;97842.50;5101794;28;20052;-47
2020/12/19 10:35:53;;;;;;;7.70;6.10;;;8.80;70.30;;;8.79;62.21;97840.53;5101690;28;20046;-46
2020/12/19 10:38:22;;;;;;;8.03;6.43;;;8.90;70.60;;;8.79;62.28;97849.31;5102033;28;20048;-47
2020/12/19 10:40:59;;;;;;;7.93;6.27;;;8.90;70.80;;;8.81;62.48;97850.00;5101914;28;20044;-47
2020/12/19 10:43:26;;;;;;;8.67;6.03;;;8.80;71.00;;;8.81;62.55;97841.22;5101997;28;20375;-47